Time;durP1;ratioP1;P1;durP2;ratioP2;P2;SDS_P1;SDS_P2;PMS_P1;PMS_P2;Temp;Humidity;BMP_temperature;BMP_pressure;BME280_temperature;BME280_humidity;BME280_pressure;Samples;Min_cycle;Max_cycle;Signal;HPM_P1;HPM_P2
2021/03/04 12:49:51;;;;;;;26.45;17.85;;;;;;;11.54;55.92;98363.33;1781652;79;22815;-63
2021/03/04 12:52:20;;;;;;;25.43;18.52;;;;;;;11.64;59.76;98375.73;1766073;80;21064;-58
2021/03/04 12:54:48;;;;;;;29.92;22.07;;;;;;;11.89;58.72;98377.30;1721832;83;21468;-64
2021/03/04 12:57:15;;;;;;;29.82;21.68;;;;;;;12.17;57.32;98377.09;1738079;81;21163;-65
2021/03/04 12:59:42;;;;;;;30.60;23.02;;;;;;;12.21;55.31;98369.80;1753773;81;21010;-65
2021/03/04 13:02:10;;;;;;;26.57;20.85;;;;;;;12.13;54.95;98382.52;1733188;81;21065;-63
2021/03/04 13:04:38;;;;;;;32.73;23.50;;;;;;;12.01;55.20;98374.34;1753708;81;21341;-63
2021/03/04 13:07:08;;;;;;;31.48;23.25;;;;;;;11.90;55.44;98386.95;1748824;81;21442;-64
2021/03/04 13:09:36;;;;;;;31.05;24.20;;;;;;;11.78;55.71;98394.72;1722913;81;21037;-64
2021/03/04 13:12:05;;;;;;;34.67;25.20;;;;;;;11.63;56.07;98394.56;1728087;81;21053;-65
2021/03/04 13:14:33;;;;;;;39.53;25.20;;;;;;;11.42;56.41;98388.89;1729984;81;21793;-65
2021/03/04 13:17:01;;;;;;;30.23;23.35;;;;;;;11.28;57.31;98396.56;1725641;81;21131;-64
2021/03/04 13:19:29;;;;;;;35.75;25.92;;;;;;;11.22;57.73;98393.36;1727254;81;21383;-63
2021/03/04 13:21:56;;;;;;;35.88;26.35;;;;;;;11.18;58.16;98387.31;1725244;82;21057;-63
2021/03/04 13:24:24;;;;;;;35.52;26.30;;;;;;;11.11;58.19;98392.59;1723819;82;20958;-63
2021/03/04 13:26:52;;;;;;;44.75;27.93;;;;;;;11.04;58.67;98387.77;1728607;81;21080;-65
2021/03/04 13:29:20;;;;;;;38.98;27.25;;;;;;;11.03;58.93;98386.11;1724700;81;21168;-65
2021/03/04 13:31:49;;;;;;;46.18;29.42;;;;;;;11.00;58.98;98380.68;1725184;81;21319;-64
2021/03/04 13:34:17;;;;;;;36.85;26.97;;;;;;;10.97;59.00;98386.43;1739651;81;21128;-62
2021/03/04 13:36:45;;;;;;;47.65;30.88;;;;;;;10.92;58.99;98389.38;1732401;81;21136;-61
2021/03/04 13:39:13;;;;;;;41.60;29.75;;;;;;;10.82;58.95;98371.63;1736925;81;21217;-64
2021/03/04 13:41:41;;;;;;;40.85;30.85;;;;;;;10.76;59.17;98381.22;1732232;81;21152;-63
2021/03/04 13:44:10;;;;;;;44.48;32.28;;;;;;;10.75;59.18;98373.41;1701082;83;21199;-62
2021/03/04 13:46:37;;;;;;;44.85;31.55;;;;;;;10.69;58.62;98387.52;1728829;82;21211;-65
2021/03/04 13:49:05;;;;;;;45.48;31.52;;;;;;;10.64;58.74;98382.77;1735789;81;21204;-61
2021/03/04 13:51:34;;;;;;;44.77;30.45;;;;;;;10.63;58.81;98377.16;1752582;80;22184;-62
2021/03/04 13:54:01;;;;;;;46.37;31.97;;;;;;;10.60;58.46;98384.20;1745587;80;21201;-60
2021/03/04 13:56:29;;;;;;;41.88;31.93;;;;;;;10.54;58.43;98387.63;1774621;80;21199;-63
2021/03/04 13:58:57;;;;;;;44.95;30.85;;;;;;;10.47;58.50;98391.60;1750658;80;21081;-62
2021/03/04 14:01:24;;;;;;;43.35;32.08;;;;;;;10.40;58.76;98384.60;1748968;80;20970;-62
2021/03/04 14:03:52;;;;;;;45.83;33.73;;;;;;;10.33;58.94;98388.53;1744085;80;21010;-63
2021/03/04 14:06:20;;;;;;;45.38;31.73;;;;;;;10.25;59.22;98391.34;1742996;80;21153;-61
2021/03/04 14:08:49;;;;;;;48.52;33.10;;;;;;;10.18;59.52;98379.02;1742638;80;21398;-65
2021/03/04 14:11:18;;;;;;;54.13;34.83;;;;;;;10.08;59.71;98385.16;1747552;80;20946;-63
2021/03/04 14:13:47;;;;;;;49.25;33.30;;;;;;;9.99;59.92;98391.11;1700692;83;20943;-64
2021/03/04 14:16:15;;;;;;;42.90;32.48;;;;;;;9.86;60.30;98387.84;1696885;83;21172;-62
2021/03/04 14:18:43;;;;;;;44.50;31.82;;;;;;;9.72;60.46;98363.53;1705912;82;21077;-62
2021/03/04 14:21:11;;;;;;;48.70;34.50;;;;;;;9.58;60.63;98383.51;1757516;80;21235;-61
2021/03/04 14:23:38;;;;;;;52.98;36.77;;;;;;;9.46;61.13;98390.34;1749830;80;21138;-61
2021/03/04 14:26:06;;;;;;;49.08;34.95;;;;;;;9.40;61.46;98385.78;1700846;83;20993;-61
2021/03/04 14:28:33;;;;;;;51.28;33.70;;;;;;;9.30;61.78;98376.31;1746090;80;21205;-61
2021/03/04 14:31:01;;;;;;;53.13;35.08;;;;;;;9.27;62.26;98381.17;1743496;80;21139;-62
2021/03/04 14:33:28;;;;;;;47.95;33.67;;;;;;;9.23;62.45;98377.23;1707761;83;21372;-62
2021/03/04 14:35:58;;;;;;;58.00;39.60;;;;;;;9.18;62.71;98385.76;1756210;80;20991;-61
2021/03/04 14:38:28;;;;;;;46.63;34.13;;;;;;;9.11;62.98;98392.00;1751499;80;21009;-62
2021/03/04 14:40:55;;;;;;;51.10;35.17;;;;;;;9.05;63.50;98391.41;1709409;83;21179;-62
2021/03/04 14:43:25;;;;;;;47.13;34.15;;;;;;;9.01;63.78;98388.83;1761037;80;21124;-63
2021/03/04 14:45:53;;;;;;;50.12;35.88;;;;;;;8.95;64.00;98398.35;1774117;80;21591;-62
2021/03/04 14:48:20;;;;;;;52.88;36.75;;;;;;;8.89;64.40;98402.27;1755284;80;21610;-62
2021/03/04 14:50:49;;;;;;;54.42;37.85;;;;;;;8.82;64.73;98409.30;1709595;83;21152;-60
2021/03/04 14:53:17;;;;;;;50.88;35.20;;;;;;;8.74;65.10;98407.57;1770383;80;21005;-61
2021/03/04 14:55:45;;;;;;;51.37;35.52;;;;;;;8.64;65.57;98407.86;1769328;80;21133;-62
2021/03/04 14:58:19;;;;;;;45.70;33.92;;;;;;;8.58;65.97;98411.23;1750492;80;21222;-63
2021/03/04 15:00:47;;;;;;;52.35;37.05;;;;;;;8.53;66.24;98413.61;1747211;80;21174;-61
2021/03/04 15:03:14;;;;;;;50.17;35.80;;;;;;;8.49;66.52;98407.55;1743780;80;20941;-63
2021/03/04 15:05:42;;;;;;;53.70;37.48;;;;;;;8.43;66.86;98410.42;1711313;83;21202;-63
2021/03/04 15:08:10;;;;;;;52.85;37.98;;;;;;;8.38;67.13;98422.56;1748484;80;21111;-61
2021/03/04 15:10:39;;;;;;;60.33;37.58;;;;;;;8.32;67.41;98410.86;1699361;83;21113;-62
2021/03/04 15:13:07;;;;;;;51.70;35.48;;;;;;;8.29;67.64;98419.16;1701893;83;21025;-62
2021/03/04 15:15:34;;;;;;;54.35;35.73;;;;;;;8.25;67.84;98425.81;1701496;83;21204;-64
2021/03/04 15:18:02;;;;;;;60.10;38.70;;;;;;;8.21;68.10;98425.87;1701712;83;21010;-62
2021/03/04 15:20:30;;;;;;;52.48;35.52;;;;;;;8.17;68.31;98427.21;1749721;80;21137;-62
2021/03/04 15:22:59;;;;;;;53.25;35.40;;;;;;;8.15;68.47;98433.70;1743105;80;21349;-63
2021/03/04 15:25:27;;;;;;;56.05;35.83;;;;;;;8.15;68.58;98431.05;1763743;80;21235;-62
2021/03/04 15:27:55;;;;;;;57.27;36.93;;;;;;;8.11;68.72;98423.95;1760123;80;20930;-62
2021/03/04 15:30:24;;;;;;;50.05;36.88;;;;;;;8.09;68.55;98428.61;1707597;83;21159;-63
2021/03/04 15:32:54;;;;;;;51.55;35.20;;;;;;;8.04;68.54;98432.30;1759461;80;21137;-61
2021/03/04 15:35:23;;;;;;;53.70;36.77;;;;;;;7.99;68.55;98432.84;1748324;80;22568;-63
2021/03/04 15:37:51;;;;;;;53.80;36.90;;;;;;;7.95;68.70;98434.72;1707651;83;21028;-61
2021/03/04 15:40:18;;;;;;;55.03;36.90;;;;;;;7.91;68.91;98438.21;1772798;80;21057;-61
2021/03/04 15:42:48;;;;;;;56.98;37.33;;;;;;;7.86;69.18;98439.74;1707688;83;21502;-61
2021/03/04 15:45:18;;;;;;;52.33;36.15;;;;;;;7.81;69.54;98434.98;1750824;80;21121;-63
2021/03/04 15:47:46;;;;;;;55.48;37.45;;;;;;;7.77;69.72;98438.18;1745334;80;21209;-60
2021/03/04 15:50:14;;;;;;;61.45;40.38;;;;;;;7.71;70.09;98439.70;1767729;80;21292;-62
2021/03/04 15:52:42;;;;;;;61.55;38.40;;;;;;;7.66;70.51;98444.71;1782485;80;20985;-61
2021/03/04 15:55:13;;;;;;;60.15;40.03;;;;;;;7.63;70.77;98445.05;1782542;80;21591;-62
2021/03/04 15:57:41;;;;;;;56.60;37.63;;;;;;;7.59;71.14;98441.59;1782491;80;21115;-61
2021/03/04 16:00:09;;;;;;;61.40;40.75;;;;;;;7.54;71.38;98447.91;1750007;80;21450;-61
2021/03/04 16:02:44;;;;;;;56.18;35.50;;;;;;;7.50;71.53;98446.63;1777010;80;20973;-60
2021/03/04 16:05:14;;;;;;;60.43;39.70;;;;;;;7.44;71.88;98446.34;1766734;80;21067;-62
2021/03/04 16:07:42;;;;;;;62.80;39.80;;;;;;;7.40;72.06;98448.99;1781749;80;21152;-63
2021/03/04 16:10:12;;;;;;;58.65;38.38;;;;;;;7.36;72.28;98448.20;1782396;80;21057;-61
2021/03/04 16:12:39;;;;;;;58.60;36.23;;;;;;;7.33;72.42;98452.02;1713215;83;22143;-61
2021/03/04 16:15:09;;;;;;;55.75;36.42;;;;;;;7.31;72.59;98459.31;1768865;80;21163;-62
2021/03/04 16:17:37;;;;;;;54.38;37.85;;;;;;;7.30;72.64;98454.21;1724890;80;21218;-61
2021/03/04 16:20:07;;;;;;;57.17;40.60;;;;;;;7.24;72.67;98457.55;1781672;80;20989;-62
2021/03/04 16:22:41;;;;;;;63.78;39.98;;;;;;;7.17;72.88;98466.66;1766660;80;21060;-61
2021/03/04 16:25:11;;;;;;;61.42;38.23;;;;;;;7.11;73.10;98471.83;1770974;80;21387;-60
2021/03/04 16:27:40;;;;;;;64.12;37.93;;;;;;;7.06;73.31;98469.70;1766765;80;21037;-60
2021/03/04 16:30:09;;;;;;;59.77;37.50;;;;;;;7.03;73.41;98475.33;1757256;80;21163;-60
2021/03/04 16:32:37;;;;;;;55.35;35.68;;;;;;;7.00;73.57;98474.84;1751319;80;21240;-61
2021/03/04 16:35:07;;;;;;;54.27;34.25;;;;;;;6.98;73.61;98477.67;1751441;80;21038;-61
2021/03/04 16:37:37;;;;;;;57.15;36.58;;;;;;;6.95;73.67;98472.72;1751357;80;21408;-60
2021/03/04 16:40:06;;;;;;;55.58;36.70;;;;;;;6.91;73.72;98482.50;1751365;80;21742;-61
2021/03/04 16:42:33;;;;;;;56.50;35.45;;;;;;;6.88;73.82;98484.98;1770071;80;21025;-61
2021/03/04 16:45:04;;;;;;;61.68;40.30;;;;;;;6.85;74.05;98484.00;1713210;82;21016;-62
2021/03/04 16:47:31;;;;;;;76.95;49.95;;;;;;;6.85;74.14;98486.64;1752270;80;21103;-60
2021/03/04 16:49:59;;;;;;;77.35;47.90;;;;;;;6.82;74.14;98491.77;1712194;83;21396;-62
2021/03/04 16:52:27;;;;;;;55.40;35.73;;;;;;;6.80;74.22;98490.30;1770972;80;20938;-61
2021/03/04 16:54:56;;;;;;;53.95;35.40;;;;;;;6.78;74.32;98491.77;1777905;80;21136;-61
2021/03/04 16:57:24;;;;;;;61.00;37.75;;;;;;;6.76;74.37;98495.09;1748402;80;21890;-62
2021/03/04 16:59:54;;;;;;;67.95;38.40;;;;;;;6.73;74.49;98495.42;1742780;80;21117;-61
2021/03/04 17:02:22;;;;;;;59.05;37.95;;;;;;;6.69;74.74;98490.66;1741369;80;22553;-61
2021/03/04 17:04:51;;;;;;;55.80;37.53;;;;;;;6.66;75.00;98493.63;1774101;80;21017;-61
2021/03/04 17:07:19;;;;;;;54.35;36.85;;;;;;;6.63;75.34;98500.08;1751913;80;21189;-61
2021/03/04 17:09:49;;;;;;;54.27;36.33;;;;;;;6.60;75.61;98499.58;1754833;80;21123;-61
2021/03/04 17:12:18;;;;;;;59.25;38.30;;;;;;;6.60;75.86;98502.22;1761933;80;21009;-63
2021/03/04 17:14:46;;;;;;;59.80;38.60;;;;;;;6.60;76.01;98499.58;1765301;80;21186;-61
2021/03/04 17:17:14;;;;;;;62.40;40.43;;;;;;;6.59;76.11;98503.23;1761902;80;20946;-61
2021/03/04 17:19:42;;;;;;;60.03;39.63;;;;;;;6.56;76.36;98499.60;1746345;80;21572;-61
2021/03/04 17:22:09;;;;;;;66.80;41.28;;;;;;;6.57;76.44;98502.59;1707724;83;21198;-61
2021/03/04 17:24:36;;;;;;;62.48;39.10;;;;;;;6.58;76.52;98505.05;1754615;80;21224;-60
2021/03/04 17:27:07;;;;;;;66.53;40.20;;;;;;;6.57;76.59;98508.67;1764622;80;21017;-62
2021/03/04 17:29:35;;;;;;;59.08;37.00;;;;;;;6.57;76.69;98515.80;1760809;80;21642;-60
2021/03/04 17:32:03;;;;;;;62.03;40.03;;;;;;;6.55;76.73;98505.87;1752467;80;21148;-61
2021/03/04 17:34:32;;;;;;;61.23;39.50;;;;;;;6.53;76.80;98511.34;1761295;80;21264;-61
2021/03/04 17:37:00;;;;;;;57.27;38.15;;;;;;;6.51;76.89;98506.72;1752645;80;21136;-61
2021/03/04 17:39:29;;;;;;;61.63;38.05;;;;;;;6.56;76.88;98506.20;1754431;80;21331;-62
2021/03/04 17:41:58;;;;;;;57.98;37.70;;;;;;;6.56;76.81;98510.17;1705889;82;21053;-63
2021/03/04 17:44:26;;;;;;;55.55;37.88;;;;;;;6.58;76.85;98514.30;1701615;84;21106;-63
2021/03/04 17:46:53;;;;;;;63.20;39.73;;;;;;;6.60;76.78;98512.79;1748802;80;21136;-61
2021/03/04 17:49:21;;;;;;;55.63;37.23;;;;;;;6.59;76.76;98511.99;1764329;80;21201;-62
2021/03/04 17:51:49;;;;;;;58.73;38.23;;;;;;;6.60;76.92;98512.79;1741968;80;21209;-63
2021/03/04 17:54:16;;;;;;;59.55;38.40;;;;;;;6.60;76.96;98510.15;1752766;80;21152;-62
2021/03/04 17:56:44;;;;;;;64.25;39.25;;;;;;;6.59;76.98;98506.70;1737117;80;21140;-63
2021/03/04 17:59:13;;;;;;;62.65;40.20;;;;;;;6.59;76.88;98505.88;1745253;80;21140;-62
2021/03/04 18:01:41;;;;;;;70.00;45.90;;;;;;;6.55;76.84;98508.02;1705531;83;21135;-63
2021/03/04 18:04:09;;;;;;;58.42;39.27;;;;;;;6.52;76.86;98512.31;1774293;80;22185;-63
2021/03/04 18:06:36;;;;;;;56.35;37.40;;;;;;;6.50;76.83;98509.52;1763512;80;21227;-64
2021/03/04 18:09:05;;;;;;;54.30;35.85;;;;;;;6.49;76.86;98510.52;1745873;80;21132;-63
2021/03/04 18:11:32;;;;;;;51.70;35.28;;;;;;;6.47;76.73;98514.64;1747238;80;21017;-61
2021/03/04 18:14:00;;;;;;;54.83;35.43;;;;;;;6.45;76.15;98513.98;1746222;80;21156;-65
2021/03/04 18:16:29;;;;;;;45.30;32.78;;;;;;;6.42;75.84;98516.13;1756403;80;21137;-66
2021/03/04 18:18:56;;;;;;;53.33;32.95;;;;;;;6.37;75.49;98517.95;1705665;83;21179;-63
2021/03/04 18:21:25;;;;;;;49.53;33.58;;;;;;;6.33;75.20;98521.11;1704933;83;21246;-66
2021/03/04 18:23:52;;;;;;;49.63;33.05;;;;;;;6.30;75.23;98532.83;1706965;83;21155;-66
2021/03/04 18:26:22;;;;;;;49.75;33.88;;;;;;;6.32;75.13;98530.01;1700405;83;21637;-63
2021/03/04 18:28:51;;;;;;;50.60;33.67;;;;;;;6.31;75.01;98528.38;1706693;83;22252;-62
2021/03/04 18:31:19;;;;;;;51.65;34.00;;;;;;;6.28;74.94;98532.18;1703994;83;21173;-60
2021/03/04 18:33:48;;;;;;;53.80;35.65;;;;;;;6.23;74.89;98525.73;1750323;80;20997;-62
2021/03/04 18:36:16;;;;;;;51.58;34.60;;;;;;;6.18;74.92;98529.69;1743421;80;21138;-61
2021/03/04 18:38:46;;;;;;;50.60;32.60;;;;;;;6.14;74.84;98534.98;1748132;80;21180;-61
2021/03/04 18:41:14;;;;;;;39.83;28.30;;;;;;;6.10;74.50;98528.36;1751230;80;22365;-61
2021/03/04 18:43:43;;;;;;;42.53;29.10;;;;;;;6.08;74.18;98534.31;1743901;80;21593;-60
2021/03/04 18:46:10;;;;;;;40.78;27.25;;;;;;;6.06;73.68;98536.78;1750821;80;21180;-64
2021/03/04 18:48:40;;;;;;;33.40;24.35;;;;;;;6.04;72.85;98531.68;1745115;80;21212;-60
2021/03/04 18:51:09;;;;;;;32.42;24.05;;;;;;;6.04;72.40;98539.60;1752895;80;21155;-63
2021/03/04 18:53:40;;;;;;;29.37;23.27;;;;;;;6.04;71.97;98544.05;1728848;82;22284;-61
2021/03/04 18:56:08;;;;;;;33.25;25.25;;;;;;;6.03;71.53;98541.90;1746121;82;21618;-59
2021/03/04 18:58:36;;;;;;;35.13;24.77;;;;;;;6.02;71.31;98540.76;1748987;82;21637;-64
2021/03/04 19:01:04;;;;;;;33.70;25.05;;;;;;;6.00;71.13;98540.91;1747764;81;21236;-61
2021/03/04 19:03:32;;;;;;;34.48;24.63;;;;;;;5.96;71.14;98546.68;1737339;82;21195;-62
2021/03/04 19:06:02;;;;;;;34.35;25.43;;;;;;;5.91;71.09;98545.86;1742515;81;21485;-62
2021/03/04 19:08:30;;;;;;;36.58;25.02;;;;;;;5.87;71.22;98547.64;1723838;82;21180;-62
2021/03/04 19:10:57;;;;;;;34.90;26.20;;;;;;;5.84;71.43;98552.72;1744776;81;21058;-65
2021/03/04 19:13:25;;;;;;;32.42;25.60;;;;;;;5.80;71.54;98546.13;1720543;82;21259;-61
2021/03/04 19:15:53;;;;;;;34.80;25.90;;;;;;;5.78;71.82;98553.39;1745199;80;21156;-60
2021/03/04 19:18:21;;;;;;;39.42;27.37;;;;;;;5.77;71.82;98553.05;1748675;80;21395;-60
2021/03/04 19:20:50;;;;;;;39.55;26.30;;;;;;;5.74;71.93;98545.94;1748345;80;21175;-61
2021/03/04 19:23:19;;;;;;;37.83;25.92;;;;;;;5.73;72.12;98543.82;1690707;80;21191;-60
2021/03/04 19:25:48;;;;;;;36.45;24.37;;;;;;;5.74;71.83;98532.26;1745463;80;21124;-61
2021/03/04 19:28:17;;;;;;;33.53;24.43;;;;;;;5.73;71.64;98535.08;1746695;80;21207;-63
2021/03/04 19:30:45;;;;;;;36.85;24.98;;;;;;;5.74;71.47;98544.13;1744606;80;22133;-61
2021/03/04 19:33:19;;;;;;;40.30;26.77;;;;;;;5.75;71.19;98546.28;1745825;80;21183;-62
2021/03/04 19:35:50;;;;;;;35.75;26.17;;;;;;;5.74;71.02;98550.73;1745471;80;21168;-61
2021/03/04 19:38:18;;;;;;;29.35;23.50;;;;;;;5.73;70.93;98549.09;1749509;80;21094;-62
2021/03/04 19:40:49;;;;;;;43.48;28.07;;;;;;;5.72;71.08;98555.84;1743023;80;21204;-61
2021/03/04 19:43:19;;;;;;;36.65;26.15;;;;;;;5.65;71.11;98562.27;1748042;80;21395;-61
2021/03/04 19:45:47;;;;;;;41.23;27.82;;;;;;;5.59;71.26;98558.95;1746185;80;21376;-60
2021/03/04 19:48:15;;;;;;;40.65;27.87;;;;;;;5.54;71.38;98540.97;1739721;81;21072;-68
2021/03/04 19:50:44;;;;;;;42.55;28.40;;;;;;;5.48;71.20;98527.09;1740068;81;21116;-59
2021/03/04 19:53:18;;;;;;;48.08;31.10;;;;;;;5.41;71.12;98534.01;1765492;80;21558;-61
2021/03/04 19:55:49;;;;;;;40.63;26.62;;;;;;;5.38;71.10;98530.86;1778080;80;22260;-61
2021/03/04 19:58:25;;;;;;;42.85;27.65;;;;;;;5.33;70.95;98527.88;1770168;80;20986;-62
2021/03/04 20:00:56;;;;;;;34.15;23.52;;;;;;;5.28;70.52;98531.48;1761831;80;21494;-66
2021/03/04 20:03:23;;;;;;;49.90;30.35;;;;;;;5.27;69.96;98531.97;1762597;80;21152;-64
2021/03/04 20:05:57;;;;;;;51.37;29.98;;;;;;;5.23;69.52;98532.45;1722280;82;21136;-63
2021/03/04 20:08:27;;;;;;;53.55;31.17;;;;;;;5.20;69.21;98531.45;1713836;83;21144;-62
2021/03/04 20:10:56;;;;;;;50.38;30.37;;;;;;;5.17;69.08;98526.49;1709253;83;21245;-61
2021/03/04 20:13:26;;;;;;;55.33;32.75;;;;;;;5.10;69.03;98518.89;1714828;83;21189;-61
2021/03/04 20:15:56;;;;;;;56.88;36.77;;;;;;;5.06;69.12;98526.80;1706677;83;21144;-63
2021/03/04 20:18:32;;;;;;;54.45;33.20;;;;;;;5.02;69.00;98523.64;1709886;83;21128;-61
2021/03/04 20:21:02;;;;;;;46.05;28.62;;;;;;;4.97;69.05;98518.86;1720632;83;21214;-61
2021/03/04 20:23:32;;;;;;;36.70;25.35;;;;;;;4.94;69.09;98525.75;1720573;82;21152;-62
2021/03/04 20:26:02;;;;;;;34.83;25.72;;;;;;;4.91;69.14;98527.87;1717805;83;21171;-61
2021/03/04 20:28:32;;;;;;;36.38;25.90;;;;;;;4.84;69.38;98535.59;1701942;83;21009;-62
2021/03/04 20:31:03;;;;;;;32.70;24.98;;;;;;;4.81;69.53;98545.13;1698490;83;21235;-62
2021/03/04 20:33:44;;;;;;;26.95;20.82;;;;;;;4.78;69.59;98545.91;1699570;83;21180;-62
2021/03/04 20:36:18;;;;;;;29.85;21.07;;;;;;;4.76;69.70;98543.94;1700994;83;21173;-61
2021/03/04 20:38:47;;;;;;;29.18;21.85;;;;;;;4.71;69.51;98547.05;1717413;82;21088;-64
2021/03/04 20:41:17;;;;;;;27.67;19.60;;;;;;;4.64;69.69;98539.41;1721311;82;21207;-61
2021/03/04 20:43:47;;;;;;;28.20;19.50;;;;;;;4.60;70.07;98541.20;1728467;82;21141;-61
2021/03/04 20:46:18;;;;;;;30.37;19.75;;;;;;;4.57;70.14;98550.23;1730570;82;21858;-63
2021/03/04 20:48:58;;;;;;;32.83;21.93;;;;;;;4.53;70.19;98550.70;1696188;83;21210;-61
2021/03/04 20:51:31;;;;;;;30.27;20.20;;;;;;;4.48;70.31;98552.98;1725325;82;21077;-61
2021/03/04 20:54:01;;;;;;;30.82;20.50;;;;;;;4.44;70.45;98556.41;1770374;80;21192;-61
2021/03/04 20:56:31;;;;;;;32.30;20.88;;;;;;;4.38;70.50;98557.84;1704842;83;21064;-60
2021/03/04 20:59:02;;;;;;;35.35;23.27;;;;;;;4.38;70.80;98558.84;1771884;80;21504;-61
2021/03/04 21:01:33;;;;;;;28.45;19.62;;;;;;;4.37;70.87;98555.38;1768148;80;21061;-61
2021/03/04 21:04:05;;;;;;;36.98;23.05;;;;;;;4.39;70.87;98557.36;1704809;83;20951;-62
2021/03/04 21:06:35;;;;;;;36.03;22.98;;;;;;;4.36;70.92;98558.48;1771547;80;21167;-62
2021/03/04 21:09:07;;;;;;;33.02;21.70;;;;;;;4.33;71.05;98557.95;1766268;80;21100;-62
2021/03/04 21:11:48;;;;;;;34.03;21.95;;;;;;;4.26;71.25;98557.76;1772764;80;21360;-61
2021/03/04 21:14:21;;;;;;;29.52;19.00;;;;;;;4.21;71.33;98563.97;1771040;80;21002;-61
2021/03/04 21:16:55;;;;;;;31.75;20.85;;;;;;;4.19;71.69;98566.42;1678725;84;21206;-61
2021/03/04 21:19:26;;;;;;;30.65;21.15;;;;;;;4.15;71.75;98561.11;1705586;83;21599;-62
2021/03/04 21:21:56;;;;;;;32.33;22.17;;;;;;;4.12;71.95;98570.13;1707095;84;21158;-62
2021/03/04 21:24:31;;;;;;;32.65;22.17;;;;;;;4.09;72.08;98569.63;1767740;80;22161;-60
2021/03/04 21:26:59;;;;;;;31.60;20.77;;;;;;;4.06;72.24;98564.18;1706153;83;21040;-61
2021/03/04 21:29:27;;;;;;;29.32;20.40;;;;;;;4.03;72.42;98564.48;1767825;80;20994;-62
2021/03/04 21:31:56;;;;;;;25.75;18.80;;;;;;;4.01;72.65;98562.49;1706476;83;21143;-61
2021/03/04 21:34:25;;;;;;;28.27;19.40;;;;;;;4.01;72.79;98574.81;1773805;80;22127;-61
2021/03/04 21:36:53;;;;;;;26.40;18.50;;;;;;;4.00;72.94;98577.09;1770899;80;21201;-60
2021/03/04 21:39:23;;;;;;;30.68;19.57;;;;;;;4.01;73.04;98575.66;1771472;80;21546;-61
2021/03/04 21:41:51;;;;;;;29.50;21.30;;;;;;;3.98;73.08;98565.91;1707446;83;21115;-61
2021/03/04 21:44:20;;;;;;;30.88;21.52;;;;;;;3.96;73.24;98573.96;1750452;80;21155;-61
2021/03/04 21:46:48;;;;;;;28.77;21.17;;;;;;;3.93;73.19;98567.68;1765826;80;21140;-61
2021/03/04 21:49:16;;;;;;;33.70;21.52;;;;;;;3.91;73.24;98567.49;1695352;83;21206;-61
2021/03/04 21:51:43;;;;;;;32.85;21.97;;;;;;;3.87;73.32;98562.17;1774251;80;21013;-61
2021/03/04 21:54:11;;;;;;;33.15;21.25;;;;;;;3.87;73.53;98566.95;1701138;83;21148;-61
2021/03/04 21:56:38;;;;;;;32.70;21.20;;;;;;;3.89;73.58;98564.99;1757675;80;21061;-61
2021/03/04 21:59:06;;;;;;;32.10;21.12;;;;;;;3.89;73.48;98566.30;1762139;80;21100;-61
2021/03/04 22:01:34;;;;;;;32.95;21.10;;;;;;;3.89;73.49;98567.63;1773217;80;21438;-61
2021/03/04 22:04:03;;;;;;;32.58;21.87;;;;;;;3.90;73.46;98565.83;1756454;80;20998;-61
2021/03/04 22:06:30;;;;;;;30.48;21.33;;;;;;;3.89;73.39;98564.16;1752353;80;21200;-62
2021/03/04 22:08:58;;;;;;;29.30;20.95;;;;;;;3.88;73.37;98567.30;1698907;83;21589;-61
2021/03/04 22:11:26;;;;;;;34.83;23.55;;;;;;;3.90;73.26;98567.14;1774299;80;21632;-61
2021/03/04 22:13:54;;;;;;;34.27;23.10;;;;;;;3.89;73.18;98568.11;1699837;83;22131;-61
2021/03/04 22:16:21;;;;;;;39.18;25.52;;;;;;;3.90;73.14;98564.51;1730856;81;21209;-61
2021/03/04 22:18:50;;;;;;;37.40;24.98;;;;;;;3.88;72.97;98566.47;1756307;80;21223;-61
2021/03/04 22:21:17;;;;;;;33.65;22.80;;;;;;;3.84;73.21;98565.10;1762927;80;20950;-61
2021/03/04 22:23:45;;;;;;;35.52;23.00;;;;;;;3.81;73.09;98568.05;1739489;80;21113;-61
2021/03/04 22:26:12;;;;;;;29.48;20.77;;;;;;;3.78;73.22;98568.35;1754353;80;21375;-61
2021/03/04 22:28:40;;;;;;;33.40;21.25;;;;;;;3.74;73.38;98562.06;1748664;80;21037;-61
2021/03/04 22:31:07;;;;;;;28.52;19.15;;;;;;;3.75;73.35;98569.48;1747264;80;21007;-60
2021/03/04 22:33:35;;;;;;;27.30;18.87;;;;;;;3.72;73.29;98569.77;1754483;80;21211;-61
2021/03/04 22:36:04;;;;;;;30.97;20.23;;;;;;;3.69;73.36;98570.06;1750264;80;21133;-61
2021/03/04 22:38:31;;;;;;;30.95;19.90;;;;;;;3.67;73.53;98569.39;1763570;80;21151;-61
2021/03/04 22:40:58;;;;;;;28.85;18.50;;;;;;;3.63;73.71;98574.11;1745517;80;21000;-61
2021/03/04 22:43:26;;;;;;;31.27;18.57;;;;;;;3.63;73.99;98573.28;1764571;80;21175;-61
2021/03/04 22:45:53;;;;;;;30.12;18.90;;;;;;;3.61;74.08;98576.07;1765443;80;21160;-61
2021/03/04 22:48:21;;;;;;;29.87;18.45;;;;;;;3.57;74.26;98581.78;1746302;80;21141;-61
2021/03/04 22:50:49;;;;;;;31.02;18.90;;;;;;;3.55;74.49;98580.59;1713247;82;21377;-60
2021/03/04 22:53:17;;;;;;;29.52;18.65;;;;;;;3.57;74.49;98577.33;1757446;80;21094;-60
2021/03/04 22:55:44;;;;;;;29.15;17.92;;;;;;;3.56;74.47;98574.38;1768511;80;21191;-61
2021/03/04 22:58:13;;;;;;;26.42;16.32;;;;;;;3.59;74.38;98575.87;1757138;80;21125;-62
2021/03/04 23:00:41;;;;;;;30.72;16.95;;;;;;;3.59;74.14;98574.08;1750346;80;21167;-61
2021/03/04 23:03:10;;;;;;;29.60;17.95;;;;;;;3.52;74.17;98573.52;1740664;80;22144;-62
2021/03/04 23:05:38;;;;;;;28.42;17.85;;;;;;;3.52;74.20;98573.52;1765230;80;21577;-61
2021/03/04 23:08:07;;;;;;;31.12;17.85;;;;;;;3.49;74.23;98574.63;1741655;80;21172;-61
2021/03/04 23:10:35;;;;;;;25.30;16.48;;;;;;;3.50;74.19;98574.95;1741897;80;20943;-62
2021/03/04 23:13:03;;;;;;;27.75;17.37;;;;;;;3.49;74.17;98573.80;1749288;80;21154;-61
2021/03/04 23:15:30;;;;;;;28.10;18.10;;;;;;;3.45;74.12;98578.99;1762816;80;21379;-61
2021/03/04 23:17:57;;;;;;;30.05;19.60;;;;;;;3.39;74.25;98575.66;1766114;80;21094;-61
2021/03/04 23:20:25;;;;;;;30.72;19.87;;;;;;;3.33;74.39;98581.02;1741836;80;21141;-62
2021/03/04 23:22:56;;;;;;;33.15;19.32;;;;;;;3.31;74.51;98585.56;1762872;80;21033;-61
2021/03/04 23:25:35;;;;;;;27.20;16.97;;;;;;;3.32;74.64;98585.09;1748295;80;21129;-62
2021/03/04 23:28:05;;;;;;;28.60;18.23;;;;;;;3.32;74.69;98583.77;1763314;80;22278;-61
2021/03/04 23:30:33;;;;;;;27.48;16.30;;;;;;;3.24;74.60;98585.82;1762119;80;21104;-61
2021/03/04 23:33:01;;;;;;;24.10;15.75;;;;;;;3.17;74.79;98587.38;1756052;80;21031;-61
2021/03/04 23:35:29;;;;;;;28.83;17.55;;;;;;;3.13;75.12;98583.88;1750455;80;21517;-61
2021/03/04 23:37:56;;;;;;;23.73;14.90;;;;;;;3.10;75.20;98576.61;1759666;80;21221;-61
2021/03/04 23:40:31;;;;;;;23.05;14.85;;;;;;;3.09;75.40;98583.33;1752813;80;21352;-60
2021/03/04 23:42:58;;;;;;;27.82;17.35;;;;;;;3.13;75.30;98583.37;1746102;80;21580;-62
2021/03/04 23:45:26;;;;;;;32.50;18.67;;;;;;;3.11;74.98;98594.04;1764968;80;20978;-60
2021/03/04 23:47:58;;;;;;;36.68;20.05;;;;;;;3.08;74.78;98586.44;1743613;80;21152;-60
2021/03/04 23:50:30;;;;;;;33.83;19.75;;;;;;;3.04;74.70;98586.41;1743709;80;21616;-60
2021/03/04 23:52:58;;;;;;;40.67;22.82;;;;;;;3.03;74.79;98595.73;1753355;80;21392;-60
2021/03/04 23:55:25;;;;;;;41.83;22.73;;;;;;;3.05;74.69;98597.23;1742632;80;21086;-61
2021/03/04 23:57:53;;;;;;;41.68;24.30;;;;;;;3.04;74.67;98603.97;1764160;80;21118;-61
